Terminal Aerodrome Forecast
Issued by NWS

Current Version | Previous Version | Text Only | Print | Product List | Glossary On
Versions: 1 2 3 4 5 6 7 8 9 10 11 12
000
FTUS44 KEPZ 260500
TAFDMN
TAF
KDMN 260535Z 2606/2706 24011G22KT P6SM SCT250
     FM261500 25016G26KT P6SM SCT100 BKN250
     FM261800 26030G45KT P6SM VCTS SCT060CB BKN100
      TEMPO 2618/2622 3SM TSRA BKN040CB
     FM270200 26015KT P6SM SCT100=

USA.gov is the U.S. government's official web portal to all federal, state and local government web resources and services.